KMFD/MFD METAR and TAF weather

Enter ICAO airport designator
Station Type Date Time Source
KMFD METAR 2021/09/24 01:52 UTC NOAA

KMFD 240152Z 23011G20KT 10SM FEW041 OVC060 11/07 A2993 RMK AO2 SLP139 T01110072


Station Type Date Time Source
KMFD Decoded METAR 2021/09/24 01:52 UTC NOAA

LAHM MUNICIPAL AIRPORT, OH, United States (KMFD) 40-49N 082-31W 395M
Sep 23, 2021 - 09:52 PM EDT / 2021.09.24 0152 UTC
Wind: from the SW (230 degrees) at 13 MPH (11 KT) gusting to 23 MPH (20 KT):0
Visibility: 10 mile(s):0
Sky conditions: overcast
Temperature: 52.0 F (11.1 C)
Dew Point: 45.0 F (7.2 C)
Relative Humidity: 76%
Pressure (altimeter): 29.93 in. Hg (1013 hPa)
ob: KMFD 240152Z 23011G20KT 10SM FEW041 OVC060 11/07 A2993 RMK AO2 SLP139 T01110072
cycle: 2

Station Type Date Time Source
KMFD TAF 2021/09/23 18:30 UTC NOAA

TAF KMFD 231726Z 2318/2418 23013G21KT P6SM VCSH OVC010
FM240100 24012KT P6SM BKN015
FM240500 25012KT P6SM BKN045

Example: see airport list